Lake Park, FL (33403)

11:56 PM EST on March 05, 2015 (GMT -0500)
Rybovich Boat Company | Change Station
CLOSE
Current Station
Personal Weather Station
Location: West Palm Beach, FL
Elevation: 10 ft
Nearby Weather Stations

Elev 10 ft 26.75 °N, 80.05 °W | Updated 10 seconds ago

Mostly Cloudy
Mostly Cloudy
75.1 °F
Feels Like 75 °F
N
3.0
Wind Variable Wind from WSW
Gusts 4.0 mph

Today
High -- | Low -- °F
--% Chance of Precip.
Yesterday
High -- | Low -- °F
Precip. -- in
6:40 AM 6:23 PM
Full, 100% visible
Pressure 30.15 in
Visibility 10.0 miles
Clouds Scattered Clouds 5000 ft
Mostly Cloudy 9000 ft
Heat Index 75 °F
Dew Point 70 °F
Humidity 85%
Rainfall in
Snow Depth Not available.
UV 0 out of 12
Pollen 10.90 out of 12
Air Quality Not available.
Flu Activity Not available.
METAR KPBI 060353Z 24005KT 10SM SCT050 BKN090 24/21 A3015 RMK AO2 SLP208 T02440206

More Conditions Fewer Conditions

Pressure 30.15 in
Visibility 10.0 miles
Clouds Scattered Clouds 5000 ft
Mostly Cloudy 9000 ft
Heat Index 75 °F
Dew Point 70 °F
Humidity 85%
Rainfall in
Snow Depth Not available.
UV 0 out of 12
Pollen 10.90 out of 12
Air Quality Not available.
Flu Activity Not available.
METAR KPBI 060353Z 24005KT 10SM SCT050 BKN090 24/21 A3015 RMK AO2 SLP208 T02440206

More Conditions Fewer Conditions

10-Day Weather Forecast

Almanac

Astronomy

Mar. 05, 2015 Rise Set
Actual Time
Civil Twilight
Nautical Twilight
Astronomical Twilight
Moon
Length of Visible Light
Length of Day
Tomorrow will be .
, % of the Moon is Illuminated

Today's Extremes

State Highs State Lows

Community

WunderPhotos

Upload Photos

1,803,178 photos uploaded!

WunderBlogs® & News

Nearby

Air Quality

  Air Quality AQ Index Pollutant
Not available.

Snow Depth

Station Depth Elevation

Earthquake Activity

City Distance Mag. Time & Date
Minimum magnitude displayed is 2.5.

Coastal Water Temperatures

Place Temperature

Nearby Weather Stations